createdAt,value
2023-01-17T00:00:34.876Z,80.30
2023-01-17T00:03:01.513Z,80.12
2023-01-17T00:05:47.051Z,80.36
2023-01-17T00:08:32.575Z,80.47
2023-01-17T00:10:59.150Z,80.47
2023-01-17T00:13:25.678Z,80.87
2023-01-17T00:15:53.131Z,80.60
2023-01-17T00:18:19.815Z,80.79
2023-01-17T00:21:06.684Z,80.86
2023-01-17T00:23:41.824Z,81.01
2023-01-17T00:26:18.073Z,80.93
2023-01-17T00:28:45.513Z,80.86
2023-01-17T00:31:14.284Z,80.97
2023-01-17T00:33:40.844Z,81.00
2023-01-17T00:36:07.973Z,81.10
2023-01-17T00:38:37.281Z,80.87
2023-01-17T00:41:06.243Z,80.85
2023-01-17T00:43:51.531Z,80.79
2023-01-17T00:46:37.607Z,80.78
2023-01-17T00:49:23.806Z,80.99
2023-01-17T00:52:09.005Z,80.97
2023-01-17T00:54:56.732Z,80.94
2023-01-17T00:57:41.485Z,80.88
2023-01-17T01:00:26.849Z,80.98
2023-01-17T01:03:12.156Z,81.08
2023-01-17T01:05:57.661Z,81.09
2023-01-17T01:08:45.296Z,80.95
2023-01-17T01:11:35.125Z,81.10
2023-01-17T01:14:20.940Z,81.29
2023-01-17T01:17:06.346Z,81.32
2023-01-17T01:19:51.693Z,81.38
2023-01-17T01:22:36.556Z,81.14
2023-01-17T01:25:21.683Z,81.20
2023-01-17T01:28:06.548Z,81.17
2023-01-17T01:30:51.604Z,81.17
2023-01-17T01:33:21.133Z,81.14
2023-01-17T01:35:53.853Z,80.97
2023-01-17T01:38:26.175Z,80.94
2023-01-17T01:40:55.400Z,80.81
2023-01-17T01:43:53.397Z,81.03
2023-01-17T01:46:25.726Z,80.99
2023-01-17T01:49:03.256Z,80.94
2023-01-17T01:51:34.974Z,80.82
2023-01-17T01:54:10.387Z,80.77
2023-01-17T01:56:38.181Z,80.70
2023-01-17T01:59:09.725Z,80.55
2023-01-17T02:01:36.728Z,80.66
2023-01-17T02:04:04.271Z,80.57
2023-01-17T02:06:37.231Z,80.45
2023-01-17T02:09:08.448Z,80.47
2023-01-17T02:11:37.338Z,80.66
2023-01-17T02:14:04.348Z,80.64
2023-01-17T02:16:33.813Z,80.46
2023-01-17T02:19:11.883Z,80.65
2023-01-17T02:21:49.986Z,80.70
2023-01-17T02:25:02.954Z,80.45
2023-01-17T02:28:15.104Z,80.44
2023-01-17T02:30:48.365Z,80.56
2023-01-17T02:33:17.741Z,80.68
2023-01-17T02:36:07.195Z,80.58
2023-01-17T02:38:39.902Z,80.41
2023-01-17T02:41:13.519Z,80.43
2023-01-17T02:43:41.332Z,80.37
2023-01-17T02:46:09.646Z,80.34
2023-01-17T02:48:37.650Z,80.59
2023-01-17T02:51:22.392Z,80.42
2023-01-17T02:54:13.882Z,80.47
2023-01-17T02:56:53.943Z,80.37
2023-01-17T02:59:43.381Z,80.29
2023-01-17T03:02:22.105Z,80.50
2023-01-17T03:04:56.675Z,80.40
2023-01-17T03:07:26.929Z,80.23
2023-01-17T03:09:59.936Z,80.42
2023-01-17T03:12:30.968Z,80.43
2023-01-17T03:14:57.710Z,80.37
2023-01-17T03:17:28.251Z,80.35
2023-01-17T03:19:54.830Z,80.45
2023-01-17T03:22:21.303Z,80.55
2023-01-17T03:24:48.131Z,80.59
2023-01-17T03:27:14.779Z,80.34
2023-01-17T03:29:41.260Z,80.35
2023-01-17T03:32:07.878Z,80.53
2023-01-17T03:34:34.397Z,80.46
2023-01-17T03:37:00.800Z,80.55
2023-01-17T03:39:27.243Z,80.23
2023-01-17T03:41:53.640Z,80.69
2023-01-17T03:44:20.102Z,80.30
2023-01-17T03:46:46.502Z,80.34
2023-01-17T03:49:13.065Z,80.56
2023-01-17T03:51:39.617Z,80.48
2023-01-17T03:54:06.312Z,80.55
2023-01-17T03:56:32.735Z,80.63
2023-01-17T03:58:59.275Z,80.85
2023-01-17T04:01:25.969Z,81.04
2023-01-17T04:03:52.614Z,81.24
2023-01-17T04:06:19.121Z,81.11
2023-01-17T04:08:45.577Z,81.29
2023-01-17T04:11:11.938Z,81.41
2023-01-17T04:13:38.366Z,81.41
2023-01-17T04:16:06.012Z,81.48
2023-01-17T04:18:32.449Z,81.76
2023-01-17T04:20:58.937Z,81.61
2023-01-17T04:23:25.503Z,81.80
2023-01-17T04:25:51.915Z,81.97
2023-01-17T04:28:18.435Z,82.07
2023-01-17T04:30:44.958Z,82.00
2023-01-17T04:33:11.389Z,81.90
2023-01-17T04:35:41.072Z,82.08
2023-01-17T04:38:10.666Z,82.23
2023-01-17T04:40:37.134Z,82.24
2023-01-17T04:43:03.637Z,82.38
2023-01-17T04:45:30.196Z,82.42
2023-01-17T04:48:01.960Z,82.50
2023-01-17T04:50:28.471Z,82.53
2023-01-17T04:52:55.018Z,82.43
2023-01-17T04:55:21.634Z,82.37
2023-01-17T04:57:48.444Z,82.56
2023-01-17T05:00:15.612Z,82.61
2023-01-17T05:02:42.216Z,82.43
2023-01-17T05:05:10.059Z,82.64
2023-01-17T05:07:36.612Z,82.68
2023-01-17T05:10:04.431Z,82.80
2023-01-17T05:12:31.477Z,82.70
2023-01-17T05:14:58.084Z,82.79
2023-01-17T05:17:24.778Z,82.92
2023-01-17T05:19:51.738Z,82.80
2023-01-17T05:22:18.195Z,83.01
2023-01-17T05:24:46.296Z,83.07
2023-01-17T05:27:14.057Z,83.25
2023-01-17T05:29:41.315Z,83.36
2023-01-17T05:32:08.059Z,83.41
2023-01-17T05:34:35.151Z,83.36
2023-01-17T05:37:01.779Z,83.49
2023-01-17T05:39:28.298Z,83.11
2023-01-17T05:41:55.884Z,83.55
2023-01-17T05:44:22.346Z,83.46
2023-01-17T05:46:51.693Z,83.32
2023-01-17T05:49:18.089Z,83.58
2023-01-17T05:51:44.510Z,83.71
2023-01-17T05:54:11.031Z,83.56
2023-01-17T05:56:37.493Z,83.44
2023-01-17T05:59:04.006Z,83.54
2023-01-17T06:01:33.507Z,83.49
2023-01-17T06:03:59.944Z,83.42
2023-01-17T06:06:26.407Z,83.33
2023-01-17T06:08:52.931Z,83.34
2023-01-17T06:11:19.571Z,83.32
2023-01-17T06:13:48.702Z,83.39
2023-01-17T06:16:16.983Z,83.37
2023-01-17T06:18:43.399Z,83.43
2023-01-17T06:21:10.269Z,83.48
2023-01-17T06:23:36.867Z,83.45
2023-01-17T06:26:04.628Z,83.48
2023-01-17T06:28:31.470Z,83.75
2023-01-17T06:30:59.788Z,83.67
2023-01-17T06:33:26.432Z,83.67
2023-01-17T06:35:53.684Z,83.55
2023-01-17T06:38:20.341Z,83.48
2023-01-17T06:40:46.981Z,83.72
2023-01-17T06:43:13.536Z,83.61
2023-01-17T06:45:40.073Z,83.98
2023-01-17T06:48:07.177Z,83.82
2023-01-17T06:50:34.340Z,83.90
2023-01-17T06:53:03.615Z,83.97
2023-01-17T06:55:33.533Z,83.93
2023-01-17T06:58:00.753Z,84.04
2023-01-17T07:00:27.604Z,84.03
2023-01-17T07:02:54.461Z,84.11
2023-01-17T07:05:21.370Z,83.99
2023-01-17T07:07:48.401Z,84.19
2023-01-17T07:10:15.518Z,84.11
2023-01-17T07:12:41.939Z,84.18
2023-01-17T07:15:09.226Z,84.23
2023-01-17T07:17:35.828Z,84.22
2023-01-17T07:20:09.127Z,84.13
2023-01-17T07:22:37.590Z,83.94
2023-01-17T07:25:09.220Z,83.91
2023-01-17T07:27:38.021Z,84.03
2023-01-17T07:30:04.832Z,84.02
2023-01-17T07:32:31.391Z,84.07
2023-01-17T07:34:58.163Z,83.92
2023-01-17T07:37:27.940Z,84.01
2023-01-17T07:39:57.143Z,83.97
2023-01-17T07:42:24.365Z,83.96
2023-01-17T07:44:50.863Z,83.84
2023-01-17T07:47:17.353Z,83.91
2023-01-17T07:49:43.890Z,83.74
2023-01-17T07:52:10.357Z,83.77
2023-01-17T07:54:36.894Z,83.89
2023-01-17T07:57:03.837Z,83.89
2023-01-17T07:59:30.392Z,83.84
2023-01-17T08:01:57.003Z,83.83
2023-01-17T08:04:26.212Z,83.95
2023-01-17T08:06:54.955Z,83.58
2023-01-17T08:09:21.880Z,83.66
2023-01-17T08:11:48.360Z,83.71
2023-01-17T08:14:14.868Z,83.71
2023-01-17T08:16:41.940Z,83.81
2023-01-17T08:19:08.744Z,83.86
2023-01-17T08:21:35.158Z,83.85
2023-01-17T08:24:01.759Z,83.76
2023-01-17T08:26:28.286Z,83.50
2023-01-17T08:28:56.821Z,83.64
2023-01-17T08:31:26.110Z,83.42
2023-01-17T08:33:52.648Z,83.21
2023-01-17T08:36:19.144Z,83.26
2023-01-17T08:38:45.571Z,83.13
2023-01-17T08:41:13.008Z,82.92
2023-01-17T08:43:39.470Z,83.01
2023-01-17T08:46:06.479Z,82.77
2023-01-17T08:48:32.998Z,82.85
2023-01-17T08:51:02.909Z,82.82
2023-01-17T08:53:29.409Z,82.90
2023-01-17T08:56:03.222Z,82.97
2023-01-17T08:58:31.327Z,82.55
2023-01-17T09:01:05.674Z,82.62
2023-01-17T09:03:33.954Z,82.45
2023-01-17T09:06:12.247Z,82.30
2023-01-17T09:08:39.152Z,82.07
2023-01-17T09:11:11.929Z,82.28
2023-01-17T09:13:39.424Z,82.05
2023-01-17T09:16:06.565Z,82.04
2023-01-17T09:18:34.673Z,82.21
2023-01-17T09:21:13.815Z,82.29
2023-01-17T09:23:40.775Z,82.11
2023-01-17T09:26:07.460Z,81.97
2023-01-17T09:28:40.872Z,82.21
2023-01-17T09:31:08.653Z,82.18
2023-01-17T09:33:35.391Z,81.88
2023-01-17T09:36:04.292Z,82.17
2023-01-17T09:38:31.527Z,82.24
2023-01-17T09:40:58.522Z,82.06
2023-01-17T09:43:45.037Z,81.95
2023-01-17T09:46:22.619Z,82.20
2023-01-17T09:49:23.987Z,81.89
2023-01-17T09:51:50.491Z,81.95
2023-01-17T09:54:22.092Z,81.56
2023-01-17T09:57:00.467Z,81.58
2023-01-17T10:00:02.900Z,81.69
2023-01-17T10:02:48.869Z,81.43
2023-01-17T10:05:34.025Z,81.27
2023-01-17T10:08:13.524Z,81.08
2023-01-17T10:10:58.842Z,80.72
2023-01-17T10:13:58.936Z,80.64
2023-01-17T10:16:34.367Z,80.24
2023-01-17T10:19:28.217Z,80.09
2023-01-17T10:22:07.459Z,79.72
2023-01-17T10:24:51.856Z,79.86
2023-01-17T10:27:38.726Z,79.42
2023-01-17T10:30:36.500Z,79.16
2023-01-17T10:33:14.399Z,79.11
2023-01-17T10:35:51.663Z,78.92
2023-01-17T10:38:20.679Z,78.41
2023-01-17T10:40:54.880Z,78.38
2023-01-17T10:43:31.456Z,78.11
2023-01-17T10:45:58.157Z,77.79
2023-01-17T10:48:38.777Z,77.45
2023-01-17T10:51:25.131Z,77.15
2023-01-17T10:54:32.454Z,76.80
2023-01-17T10:56:59.294Z,76.42
2023-01-17T10:59:33.481Z,76.27
2023-01-17T11:02:06.877Z,75.90
2023-01-17T11:04:40.233Z,75.68
2023-01-17T11:07:12.371Z,75.12
2023-01-17T11:09:49.807Z,74.76
2023-01-17T11:12:37.617Z,74.62
2023-01-17T11:15:22.697Z,74.14
2023-01-17T11:18:06.441Z,74.10
2023-01-17T11:20:38.184Z,73.88
2023-01-17T11:23:21.470Z,73.13
2023-01-17T11:25:58.083Z,73.25
2023-01-17T11:28:30.148Z,72.24
2023-01-17T11:31:03.475Z,72.36
2023-01-17T11:33:45.921Z,72.03
2023-01-17T11:36:19.511Z,72.11
2023-01-17T11:39:18.254Z,72.01
2023-01-17T11:41:47.627Z,71.40
2023-01-17T11:44:28.144Z,70.86
2023-01-17T11:47:12.943Z,71.05
2023-01-17T11:49:41.140Z,70.88
2023-01-17T11:52:18.261Z,69.88
2023-01-17T11:54:47.825Z,69.56
2023-01-17T11:57:29.723Z,69.16
2023-01-17T12:00:24.233Z,69.19
2023-01-17T12:03:03.944Z,69.24
2023-01-17T12:05:54.344Z,69.21
2023-01-17T12:08:51.330Z,69.07
2023-01-17T12:11:32.001Z,68.82
2023-01-17T12:14:24.302Z,68.50
2023-01-17T12:17:08.881Z,67.79
2023-01-17T12:20:00.857Z,67.09
2023-01-17T12:22:27.446Z,66.64
2023-01-17T12:25:24.141Z,65.94
2023-01-17T12:27:56.752Z,65.74
2023-01-17T12:30:23.208Z,65.62
2023-01-17T12:33:08.308Z,65.49
2023-01-17T12:35:50.798Z,65.59
2023-01-17T12:38:32.254Z,65.69
2023-01-17T12:41:35.474Z,65.69
2023-01-17T12:44:16.552Z,65.45
2023-01-17T12:46:50.760Z,65.40
2023-01-17T12:49:32.467Z,65.18
2023-01-17T12:52:45.064Z,65.12
2023-01-17T12:55:27.235Z,64.90
2023-01-17T12:58:04.172Z,64.92
2023-01-17T13:00:39.645Z,64.70
2023-01-17T13:03:36.566Z,64.43
2023-01-17T13:06:06.119Z,64.41
2023-01-17T13:08:49.718Z,64.19
2023-01-17T13:11:43.709Z,64.34
2023-01-17T13:14:10.808Z,64.04
2023-01-17T13:16:50.075Z,64.14
2023-01-17T13:19:44.305Z,64.29
2023-01-17T13:22:21.871Z,64.08
2023-01-17T13:25:06.616Z,64.01
2023-01-17T13:28:00.380Z,63.80
2023-01-17T13:30:43.318Z,63.73
2023-01-17T13:33:28.243Z,63.86
2023-01-17T13:36:21.515Z,63.74
2023-01-17T13:39:13.869Z,63.75
2023-01-17T13:41:52.285Z,63.53
2023-01-17T13:44:21.606Z,63.64
2023-01-17T13:47:16.248Z,63.56
2023-01-17T13:49:56.394Z,63.25
2023-01-17T13:52:25.776Z,63.21
2023-01-17T13:54:52.194Z,63.27
2023-01-17T13:57:29.381Z,63.04
2023-01-17T13:59:57.527Z,62.96
2023-01-17T14:02:33.144Z,63.03
2023-01-17T14:05:15.091Z,62.87
2023-01-17T14:08:02.193Z,62.77
2023-01-17T14:10:28.714Z,62.94
2023-01-17T14:12:56.094Z,62.71
2023-01-17T14:15:27.003Z,62.72
2023-01-17T14:18:04.607Z,62.52
2023-01-17T14:20:42.204Z,62.48
2023-01-17T14:23:29.715Z,62.26
2023-01-17T14:25:59.967Z,62.31
2023-01-17T14:28:26.356Z,62.30
2023-01-17T14:30:56.464Z,62.36
2023-01-17T14:33:35.342Z,62.04
2023-01-17T14:36:05.605Z,62.22
2023-01-17T14:38:34.044Z,62.21
2023-01-17T14:41:09.708Z,62.17
2023-01-17T14:43:49.102Z,62.30
2023-01-17T14:46:33.697Z,62.40
2023-01-17T14:49:20.757Z,62.17
2023-01-17T14:52:04.650Z,62.26
2023-01-17T14:54:31.245Z,62.45
2023-01-17T14:57:14.545Z,62.37
2023-01-17T14:59:40.995Z,62.26
2023-01-17T15:02:16.326Z,62.46
2023-01-17T15:04:43.238Z,62.41
2023-01-17T15:07:16.640Z,62.43
2023-01-17T15:09:44.661Z,62.70
2023-01-17T15:12:14.437Z,62.47
2023-01-17T15:14:44.869Z,62.37
2023-01-17T15:17:20.801Z,62.26
2023-01-17T15:19:57.022Z,62.44
2023-01-17T15:22:25.903Z,62.35
2023-01-17T15:24:53.710Z,62.35
2023-01-17T15:27:20.757Z,62.34
2023-01-17T15:29:47.881Z,62.33
2023-01-17T15:32:22.967Z,62.34
2023-01-17T15:34:51.399Z,62.34
2023-01-17T15:37:27.597Z,62.52
2023-01-17T15:40:17.889Z,62.27
2023-01-17T15:42:47.832Z,62.67
2023-01-17T15:45:20.745Z,62.45
2023-01-17T15:47:49.101Z,62.46
2023-01-17T15:50:26.291Z,62.73
2023-01-17T15:52:55.821Z,62.44
2023-01-17T15:55:23.812Z,62.63
2023-01-17T15:57:50.330Z,62.44
2023-01-17T16:00:23.225Z,62.60
2023-01-17T16:02:58.673Z,62.52
2023-01-17T16:05:25.756Z,62.61
2023-01-17T16:08:02.618Z,62.76
2023-01-17T16:10:36.278Z,62.56
2023-01-17T16:13:05.803Z,62.71
2023-01-17T16:15:32.624Z,62.47
2023-01-17T16:18:04.134Z,62.42
2023-01-17T16:20:33.400Z,62.67
2023-01-17T16:23:00.616Z,62.59
2023-01-17T16:25:32.320Z,62.77
2023-01-17T16:28:00.032Z,62.46
2023-01-17T16:30:27.689Z,62.49
2023-01-17T16:32:56.497Z,62.74
2023-01-17T16:35:25.486Z,62.74
2023-01-17T16:38:01.095Z,62.49
2023-01-17T16:40:30.915Z,62.51
2023-01-17T16:42:58.724Z,62.69
2023-01-17T16:45:25.726Z,62.59
2023-01-17T16:47:53.653Z,62.59
2023-01-17T16:50:23.224Z,62.43
2023-01-17T16:52:51.650Z,62.67
2023-01-17T16:55:22.133Z,62.87
2023-01-17T16:57:54.137Z,62.58
2023-01-17T17:00:22.538Z,62.42
2023-01-17T17:02:53.048Z,62.57
2023-01-17T17:05:20.052Z,62.31
2023-01-17T17:07:50.759Z,62.49
2023-01-17T17:10:20.403Z,62.60
2023-01-17T17:12:46.958Z,62.55
2023-01-17T17:15:14.110Z,62.42
2023-01-17T17:17:43.013Z,62.52
2023-01-17T17:20:13.026Z,62.29
2023-01-17T17:22:40.680Z,62.55
2023-01-17T17:25:07.706Z,62.27
2023-01-17T17:27:34.149Z,62.49
2023-01-17T17:30:00.652Z,62.62
2023-01-17T17:32:28.089Z,62.30
2023-01-17T17:34:54.536Z,62.34
2023-01-17T17:37:22.778Z,62.48
2023-01-17T17:39:49.809Z,62.65
2023-01-17T17:42:16.294Z,62.71
2023-01-17T17:44:42.683Z,62.90
2023-01-17T17:47:11.610Z,63.26
2023-01-17T17:49:38.162Z,63.58
2023-01-17T17:52:07.285Z,63.78
2023-01-17T17:54:34.063Z,64.50
2023-01-17T17:57:00.523Z,64.87
2023-01-17T17:59:29.756Z,65.10
2023-01-17T18:01:56.319Z,65.70
2023-01-17T18:04:22.818Z,65.90
2023-01-17T18:06:49.339Z,66.12
2023-01-17T18:09:16.317Z,66.54
2023-01-17T18:11:43.809Z,66.75
2023-01-17T18:14:15.242Z,67.36
2023-01-17T18:16:44.861Z,67.28
2023-01-17T18:19:15.198Z,67.63
2023-01-17T18:21:41.743Z,67.72
2023-01-17T18:24:10.737Z,68.02
2023-01-17T18:26:44.340Z,68.34
2023-01-17T18:29:14.853Z,68.52
2023-01-17T18:31:42.825Z,68.77
2023-01-17T18:34:12.243Z,69.33
2023-01-17T18:36:39.029Z,69.43
2023-01-17T18:39:12.008Z,69.83
2023-01-17T18:41:38.581Z,70.11
2023-01-17T18:44:05.964Z,70.14
2023-01-17T18:46:33.843Z,70.22
2023-01-17T18:49:00.713Z,70.26
2023-01-17T18:51:31.910Z,70.48
2023-01-17T18:54:02.735Z,70.83
2023-01-17T18:56:31.581Z,70.85
2023-01-17T18:58:58.279Z,71.24
2023-01-17T19:01:30.215Z,71.43
2023-01-17T19:03:58.875Z,71.30
2023-01-17T19:06:30.283Z,71.62
2023-01-17T19:08:58.309Z,71.80
2023-01-17T19:11:25.424Z,72.26
2023-01-17T19:13:53.176Z,72.39
2023-01-17T19:16:26.365Z,72.34
2023-01-17T19:18:53.225Z,72.42
2023-01-17T19:21:22.586Z,72.82
2023-01-17T19:23:50.544Z,72.85
2023-01-17T19:26:19.867Z,73.03
2023-01-17T19:28:48.434Z,73.16
2023-01-17T19:31:22.208Z,73.33
2023-01-17T19:33:50.815Z,73.37
2023-01-17T19:36:23.455Z,73.58
2023-01-17T19:39:03.572Z,73.98
2023-01-17T19:41:31.236Z,74.39
2023-01-17T19:44:03.481Z,74.18
2023-01-17T19:46:30.284Z,74.55
2023-01-17T19:48:57.699Z,74.61
2023-01-17T19:51:25.417Z,74.72
2023-01-17T19:53:53.518Z,74.87
2023-01-17T19:56:22.638Z,74.92
2023-01-17T19:58:49.263Z,75.18
2023-01-17T20:01:22.120Z,75.26
2023-01-17T20:03:49.653Z,75.51
2023-01-17T20:06:19.419Z,75.39
2023-01-17T20:08:46.210Z,75.75
2023-01-17T20:11:19.606Z,75.97
2023-01-17T20:13:47.088Z,75.92
2023-01-17T20:16:18.426Z,76.01
2023-01-17T20:18:45.645Z,76.18
2023-01-17T20:21:15.133Z,76.42
2023-01-17T20:23:43.373Z,76.40
2023-01-17T20:26:11.629Z,76.48
2023-01-17T20:28:40.156Z,76.77
2023-01-17T20:31:15.494Z,76.90
2023-01-17T20:33:43.687Z,76.98
2023-01-17T20:36:13.911Z,77.25
2023-01-17T20:38:43.842Z,77.10
2023-01-17T20:41:17.392Z,77.43
2023-01-17T20:43:46.689Z,77.68
2023-01-17T20:46:13.944Z,77.62
2023-01-17T20:48:45.974Z,77.62
2023-01-17T20:51:13.554Z,77.76
2023-01-17T20:53:41.624Z,77.97
2023-01-17T20:56:09.309Z,77.50
2023-01-17T20:58:35.846Z,77.85
2023-01-17T21:01:02.555Z,78.01
2023-01-17T21:03:29.330Z,78.02
2023-01-17T21:06:04.781Z,78.28
2023-01-17T21:08:36.442Z,78.35
2023-01-17T21:11:04.221Z,78.58
2023-01-17T21:13:31.554Z,78.75
2023-01-17T21:15:58.157Z,78.72
2023-01-17T21:18:26.574Z,78.76
2023-01-17T21:20:53.625Z,78.72
2023-01-17T21:23:20.636Z,78.70
2023-01-17T21:25:57.754Z,78.95
2023-01-17T21:28:25.971Z,79.19
2023-01-17T21:30:53.315Z,78.96
2023-01-17T21:33:21.422Z,79.21
2023-01-17T21:35:47.981Z,78.94
2023-01-17T21:38:14.553Z,79.17
2023-01-17T21:40:42.304Z,79.44
2023-01-17T21:43:09.728Z,79.51
2023-01-17T21:45:37.615Z,79.50
2023-01-17T21:48:04.936Z,79.37
2023-01-17T21:50:33.609Z,79.49
2023-01-17T21:53:00.606Z,79.66
2023-01-17T21:55:45.788Z,79.71
2023-01-17T21:58:32.036Z,79.80
2023-01-17T22:01:08.789Z,80.03
2023-01-17T22:03:35.988Z,80.04
2023-01-17T22:06:04.193Z,79.92
2023-01-17T22:08:38.149Z,80.24
2023-01-17T22:11:07.372Z,80.16
2023-01-17T22:13:34.846Z,80.40
2023-01-17T22:16:03.506Z,80.51
2023-01-17T22:18:30.613Z,80.30
2023-01-17T22:20:57.737Z,80.58
2023-01-17T22:23:24.230Z,80.57
2023-01-17T22:25:50.619Z,80.41
2023-01-17T22:28:17.834Z,80.55
2023-01-17T22:30:44.405Z,80.84
2023-01-17T22:33:10.797Z,80.70
2023-01-17T22:35:37.143Z,81.07
2023-01-17T22:38:03.584Z,81.18
2023-01-17T22:40:31.512Z,81.36
2023-01-17T22:42:58.170Z,81.11
2023-01-17T22:45:25.997Z,81.05
2023-01-17T22:47:52.404Z,81.17
2023-01-17T22:50:18.855Z,81.28
2023-01-17T22:52:45.235Z,81.46
2023-01-17T22:55:12.129Z,81.44
2023-01-17T22:57:38.648Z,81.49
2023-01-17T23:00:14.318Z,81.51
2023-01-17T23:02:44.320Z,81.61
2023-01-17T23:05:11.022Z,81.75
2023-01-17T23:07:42.865Z,81.73
2023-01-17T23:10:33.797Z,81.82
2023-01-17T23:13:00.245Z,81.67
2023-01-17T23:15:45.343Z,81.92
2023-01-17T23:18:30.500Z,81.76
2023-01-17T23:20:56.914Z,81.75
2023-01-17T23:23:23.285Z,82.17
2023-01-17T23:25:49.801Z,82.19
2023-01-17T23:28:20.704Z,82.32
2023-01-17T23:30:48.075Z,82.27
2023-01-17T23:33:16.481Z,82.43
2023-01-17T23:35:46.089Z,82.21
2023-01-17T23:38:26.025Z,82.29
2023-01-17T23:41:12.073Z,82.54
2023-01-17T23:43:38.450Z,82.57
2023-01-17T23:46:05.556Z,82.56
2023-01-17T23:48:32.001Z,82.70
2023-01-17T23:51:09.456Z,82.66
2023-01-17T23:53:37.977Z,82.73
2023-01-17T23:56:24.856Z,82.58
2023-01-17T23:58:51.293Z,82.72
